sensor_id;sensor_type;location;lat;lon;timestamp;P1;durP1;ratioP1;P2;durP2;ratioP2
74528;SDS011;63009;52.584;5.932;2023-02-15T00:01:35;30.98;;;16.10;;
74528;SDS011;63009;52.584;5.932;2023-02-15T00:04:02;31.73;;;16.85;;
74528;SDS011;63009;52.584;5.932;2023-02-15T00:06:28;29.63;;;17.02;;
74528;SDS011;63009;52.584;5.932;2023-02-15T00:08:54;25.42;;;14.32;;
74528;SDS011;63009;52.584;5.932;2023-02-15T00:11:19;25.20;;;14.05;;
74528;SDS011;63009;52.584;5.932;2023-02-15T00:14:12;27.38;;;16.88;;
74528;SDS011;63009;52.584;5.932;2023-02-15T00:16:39;26.65;;;13.75;;
74528;SDS011;63009;52.584;5.932;2023-02-15T00:19:06;30.73;;;16.88;;
74528;SDS011;63009;52.584;5.932;2023-02-15T00:21:32;31.20;;;16.27;;
74528;SDS011;63009;52.584;5.932;2023-02-15T00:23:59;31.85;;;16.00;;
74528;SDS011;63009;52.584;5.932;2023-02-15T00:26:26;26.42;;;14.63;;
74528;SDS011;63009;52.584;5.932;2023-02-15T00:28:52;33.50;;;17.73;;
74528;SDS011;63009;52.584;5.932;2023-02-15T00:31:18;32.58;;;16.27;;
74528;SDS011;63009;52.584;5.932;2023-02-15T00:33:44;31.73;;;18.25;;
74528;SDS011;63009;52.584;5.932;2023-02-15T00:36:09;30.05;;;15.77;;
74528;SDS011;63009;52.584;5.932;2023-02-15T00:38:35;26.85;;;15.68;;
74528;SDS011;63009;52.584;5.932;2023-02-15T00:41:02;25.88;;;14.60;;
74528;SDS011;63009;52.584;5.932;2023-02-15T00:43:29;24.15;;;13.57;;
74528;SDS011;63009;52.584;5.932;2023-02-15T00:45:56;26.23;;;15.00;;
74528;SDS011;63009;52.584;5.932;2023-02-15T00:48:22;23.17;;;14.45;;
74528;SDS011;63009;52.584;5.932;2023-02-15T00:50:56;21.00;;;11.95;;
74528;SDS011;63009;52.584;5.932;2023-02-15T00:53:23;21.25;;;13.07;;
74528;SDS011;63009;52.584;5.932;2023-02-15T00:55:49;28.98;;;15.77;;
74528;SDS011;63009;52.584;5.932;2023-02-15T00:58:15;27.13;;;16.07;;
74528;SDS011;63009;52.584;5.932;2023-02-15T01:00:41;30.67;;;17.17;;
74528;SDS011;63009;52.584;5.932;2023-02-15T01:03:08;32.40;;;17.90;;
74528;SDS011;63009;52.584;5.932;2023-02-15T01:05:34;28.40;;;18.05;;
74528;SDS011;63009;52.584;5.932;2023-02-15T01:08:00;29.20;;;15.97;;
74528;SDS011;63009;52.584;5.932;2023-02-15T01:10:25;29.23;;;16.50;;
74528;SDS011;63009;52.584;5.932;2023-02-15T01:12:51;28.48;;;17.45;;
74528;SDS011;63009;52.584;5.932;2023-02-15T01:15:17;28.50;;;17.48;;
74528;SDS011;63009;52.584;5.932;2023-02-15T01:17:43;31.70;;;17.60;;
74528;SDS011;63009;52.584;5.932;2023-02-15T01:20:14;30.77;;;19.20;;
74528;SDS011;63009;52.584;5.932;2023-02-15T01:22:39;36.58;;;20.92;;
74528;SDS011;63009;52.584;5.932;2023-02-15T01:25:05;33.97;;;20.40;;
74528;SDS011;63009;52.584;5.932;2023-02-15T01:27:30;31.63;;;19.17;;
74528;SDS011;63009;52.584;5.932;2023-02-15T01:29:56;34.27;;;19.87;;
74528;SDS011;63009;52.584;5.932;2023-02-15T01:32:21;33.17;;;19.05;;
74528;SDS011;63009;52.584;5.932;2023-02-15T01:34:46;34.72;;;20.45;;
74528;SDS011;63009;52.584;5.932;2023-02-15T01:37:12;31.83;;;18.15;;
74528;SDS011;63009;52.584;5.932;2023-02-15T01:39:37;31.10;;;17.17;;
74528;SDS011;63009;52.584;5.932;2023-02-15T01:42:02;29.27;;;16.67;;
74528;SDS011;63009;52.584;5.932;2023-02-15T01:47:41;28.40;;;16.38;;
74528;SDS011;63009;52.584;5.932;2023-02-15T01:53:05;28.17;;;16.30;;
74528;SDS011;63009;52.584;5.932;2023-02-15T01:55:47;26.15;;;16.73;;
74528;SDS011;63009;52.584;5.932;2023-02-15T01:58:17;27.85;;;16.00;;
74528;SDS011;63009;52.584;5.932;2023-02-15T02:00:43;24.75;;;14.75;;
74528;SDS011;63009;52.584;5.932;2023-02-15T02:03:09;23.98;;;15.40;;
74528;SDS011;63009;52.584;5.932;2023-02-15T02:05:35;24.98;;;14.10;;
74528;SDS011;63009;52.584;5.932;2023-02-15T02:08:02;24.02;;;14.68;;
74528;SDS011;63009;52.584;5.932;2023-02-15T02:10:28;21.20;;;13.88;;
74528;SDS011;63009;52.584;5.932;2023-02-15T02:12:55;22.33;;;13.52;;
74528;SDS011;63009;52.584;5.932;2023-02-15T02:26:44;22.80;;;14.20;;
74528;SDS011;63009;52.584;5.932;2023-02-15T02:29:19;25.25;;;15.43;;
74528;SDS011;63009;52.584;5.932;2023-02-15T02:37:52;25.77;;;14.10;;
74528;SDS011;63009;52.584;5.932;2023-02-15T02:42:58;22.27;;;13.63;;
74528;SDS011;63009;52.584;5.932;2023-02-15T02:45:29;20.95;;;13.57;;
74528;SDS011;63009;52.584;5.932;2023-02-15T02:48:03;21.08;;;13.57;;
74528;SDS011;63009;52.584;5.932;2023-02-15T02:50:33;21.27;;;13.20;;
74528;SDS011;63009;52.584;5.932;2023-02-15T02:52:58;24.83;;;14.87;;
74528;SDS011;63009;52.584;5.932;2023-02-15T02:57:57;22.50;;;14.48;;
74528;SDS011;63009;52.584;5.932;2023-02-15T03:00:46;24.85;;;13.05;;
74528;SDS011;63009;52.584;5.932;2023-02-15T03:03:20;22.90;;;14.40;;
74528;SDS011;63009;52.584;5.932;2023-02-15T03:06:21;26.75;;;12.77;;
74528;SDS011;63009;52.584;5.932;2023-02-15T03:09:09;23.33;;;14.45;;
74528;SDS011;63009;52.584;5.932;2023-02-15T03:11:41;23.70;;;14.65;;
74528;SDS011;63009;52.584;5.932;2023-02-15T03:14:09;21.35;;;14.18;;
74528;SDS011;63009;52.584;5.932;2023-02-15T03:16:35;25.05;;;13.68;;
74528;SDS011;63009;52.584;5.932;2023-02-15T03:19:06;23.48;;;13.30;;
74528;SDS011;63009;52.584;5.932;2023-02-15T03:23:59;23.80;;;13.30;;
74528;SDS011;63009;52.584;5.932;2023-02-15T03:26:29;24.13;;;13.73;;
74528;SDS011;63009;52.584;5.932;2023-02-15T03:28:55;23.10;;;13.82;;
74528;SDS011;63009;52.584;5.932;2023-02-15T03:31:23;19.10;;;12.02;;
74528;SDS011;63009;52.584;5.932;2023-02-15T03:34:02;23.13;;;13.85;;
74528;SDS011;63009;52.584;5.932;2023-02-15T03:36:43;23.83;;;14.00;;
74528;SDS011;63009;52.584;5.932;2023-02-15T03:39:21;23.75;;;14.13;;
74528;SDS011;63009;52.584;5.932;2023-02-15T03:41:57;24.42;;;15.60;;
74528;SDS011;63009;52.584;5.932;2023-02-15T03:47:00;24.70;;;14.77;;
74528;SDS011;63009;52.584;5.932;2023-02-15T03:52:14;30.50;;;17.45;;
74528;SDS011;63009;52.584;5.932;2023-02-15T03:54:41;28.63;;;17.33;;
74528;SDS011;63009;52.584;5.932;2023-02-15T03:57:25;28.85;;;17.77;;
74528;SDS011;63009;52.584;5.932;2023-02-15T04:00:15;31.65;;;17.33;;
74528;SDS011;63009;52.584;5.932;2023-02-15T04:05:39;33.38;;;17.52;;
74528;SDS011;63009;52.584;5.932;2023-02-15T04:08:05;29.52;;;17.58;;
74528;SDS011;63009;52.584;5.932;2023-02-15T04:10:31;34.63;;;17.15;;
74528;SDS011;63009;52.584;5.932;2023-02-15T04:13:17;33.67;;;16.15;;
74528;SDS011;63009;52.584;5.932;2023-02-15T04:15:42;29.92;;;15.73;;
74528;SDS011;63009;52.584;5.932;2023-02-15T04:18:26;31.52;;;16.40;;
74528;SDS011;63009;52.584;5.932;2023-02-15T04:21:10;30.10;;;16.23;;
74528;SDS011;63009;52.584;5.932;2023-02-15T04:23:54;27.48;;;16.35;;
74528;SDS011;63009;52.584;5.932;2023-02-15T04:26:38;27.13;;;15.68;;
74528;SDS011;63009;52.584;5.932;2023-02-15T04:29:03;28.93;;;15.67;;
74528;SDS011;63009;52.584;5.932;2023-02-15T04:31:28;26.88;;;16.15;;
74528;SDS011;63009;52.584;5.932;2023-02-15T04:33:53;24.90;;;14.00;;
74528;SDS011;63009;52.584;5.932;2023-02-15T04:36:19;26.47;;;14.67;;
74528;SDS011;63009;52.584;5.932;2023-02-15T04:38:44;29.60;;;15.20;;
74528;SDS011;63009;52.584;5.932;2023-02-15T04:41:09;24.23;;;14.47;;
74528;SDS011;63009;52.584;5.932;2023-02-15T04:43:36;25.92;;;14.45;;
74528;SDS011;63009;52.584;5.932;2023-02-15T04:46:01;27.48;;;16.40;;
74528;SDS011;63009;52.584;5.932;2023-02-15T04:48:26;27.27;;;15.97;;
74528;SDS011;63009;52.584;5.932;2023-02-15T04:50:52;25.85;;;14.63;;
74528;SDS011;63009;52.584;5.932;2023-02-15T04:53:17;29.60;;;17.57;;
74528;SDS011;63009;52.584;5.932;2023-02-15T04:55:43;30.15;;;16.20;;
74528;SDS011;63009;52.584;5.932;2023-02-15T04:58:08;26.73;;;15.85;;
74528;SDS011;63009;52.584;5.932;2023-02-15T05:00:33;44.43;;;20.67;;
74528;SDS011;63009;52.584;5.932;2023-02-15T05:02:59;51.70;;;25.77;;
74528;SDS011;63009;52.584;5.932;2023-02-15T05:05:24;44.80;;;24.27;;
74528;SDS011;63009;52.584;5.932;2023-02-15T05:07:49;40.80;;;23.70;;
74528;SDS011;63009;52.584;5.932;2023-02-15T05:10:14;35.03;;;18.97;;
74528;SDS011;63009;52.584;5.932;2023-02-15T05:12:40;32.28;;;19.45;;
74528;SDS011;63009;52.584;5.932;2023-02-15T05:15:05;30.57;;;16.77;;
74528;SDS011;63009;52.584;5.932;2023-02-15T05:17:30;25.92;;;14.13;;
74528;SDS011;63009;52.584;5.932;2023-02-15T05:19:56;25.00;;;14.07;;
74528;SDS011;63009;52.584;5.932;2023-02-15T05:22:21;29.17;;;15.23;;
74528;SDS011;63009;52.584;5.932;2023-02-15T05:24:46;25.73;;;14.90;;
74528;SDS011;63009;52.584;5.932;2023-02-15T05:27:30;30.88;;;17.17;;
74528;SDS011;63009;52.584;5.932;2023-02-15T05:30:14;28.83;;;17.58;;
74528;SDS011;63009;52.584;5.932;2023-02-15T05:32:39;30.88;;;15.88;;
74528;SDS011;63009;52.584;5.932;2023-02-15T05:35:05;31.80;;;18.42;;
74528;SDS011;63009;52.584;5.932;2023-02-15T05:37:32;33.35;;;19.15;;
74528;SDS011;63009;52.584;5.932;2023-02-15T05:39:57;31.98;;;18.23;;
74528;SDS011;63009;52.584;5.932;2023-02-15T05:42:23;29.77;;;16.52;;
74528;SDS011;63009;52.584;5.932;2023-02-15T05:44:48;33.37;;;20.00;;
74528;SDS011;63009;52.584;5.932;2023-02-15T05:47:13;34.47;;;20.02;;
74528;SDS011;63009;52.584;5.932;2023-02-15T05:49:38;35.40;;;20.47;;
74528;SDS011;63009;52.584;5.932;2023-02-15T05:52:05;31.40;;;17.50;;
74528;SDS011;63009;52.584;5.932;2023-02-15T05:54:30;28.92;;;15.77;;
74528;SDS011;63009;52.584;5.932;2023-02-15T05:56:55;34.40;;;18.47;;
74528;SDS011;63009;52.584;5.932;2023-02-15T05:59:21;36.58;;;19.80;;
74528;SDS011;63009;52.584;5.932;2023-02-15T06:01:46;29.73;;;16.13;;
74528;SDS011;63009;52.584;5.932;2023-02-15T06:04:12;33.43;;;17.70;;
74528;SDS011;63009;52.584;5.932;2023-02-15T06:06:37;40.38;;;19.48;;
74528;SDS011;63009;52.584;5.932;2023-02-15T06:09:03;34.13;;;19.02;;
74528;SDS011;63009;52.584;5.932;2023-02-15T06:11:28;36.10;;;18.25;;
74528;SDS011;63009;52.584;5.932;2023-02-15T06:13:53;34.53;;;17.00;;
74528;SDS011;63009;52.584;5.932;2023-02-15T06:16:19;34.17;;;17.23;;
74528;SDS011;63009;52.584;5.932;2023-02-15T06:18:44;35.07;;;18.00;;
74528;SDS011;63009;52.584;5.932;2023-02-15T06:21:09;41.08;;;20.35;;
74528;SDS011;63009;52.584;5.932;2023-02-15T06:23:34;39.60;;;19.63;;
74528;SDS011;63009;52.584;5.932;2023-02-15T06:26:00;36.23;;;19.50;;
74528;SDS011;63009;52.584;5.932;2023-02-15T06:28:25;37.20;;;19.20;;
74528;SDS011;63009;52.584;5.932;2023-02-15T06:30:50;36.57;;;19.60;;
74528;SDS011;63009;52.584;5.932;2023-02-15T06:33:17;37.15;;;18.63;;
74528;SDS011;63009;52.584;5.932;2023-02-15T06:35:42;39.27;;;20.93;;
74528;SDS011;63009;52.584;5.932;2023-02-15T06:38:08;34.80;;;18.13;;
74528;SDS011;63009;52.584;5.932;2023-02-15T06:40:33;38.27;;;21.47;;
74528;SDS011;63009;52.584;5.932;2023-02-15T06:42:58;44.60;;;20.07;;
74528;SDS011;63009;52.584;5.932;2023-02-15T06:45:23;39.60;;;18.57;;
74528;SDS011;63009;52.584;5.932;2023-02-15T06:47:49;40.37;;;19.20;;
74528;SDS011;63009;52.584;5.932;2023-02-15T06:50:14;37.10;;;19.85;;
74528;SDS011;63009;52.584;5.932;2023-02-15T06:52:39;45.92;;;22.73;;
74528;SDS011;63009;52.584;5.932;2023-02-15T06:55:05;41.77;;;21.77;;
74528;SDS011;63009;52.584;5.932;2023-02-15T06:57:31;42.58;;;20.92;;
74528;SDS011;63009;52.584;5.932;2023-02-15T06:59:57;42.17;;;21.08;;
74528;SDS011;63009;52.584;5.932;2023-02-15T07:02:23;41.22;;;21.48;;
74528;SDS011;63009;52.584;5.932;2023-02-15T07:04:48;42.53;;;21.67;;
74528;SDS011;63009;52.584;5.932;2023-02-15T07:07:13;41.80;;;19.43;;
74528;SDS011;63009;52.584;5.932;2023-02-15T07:09:39;39.03;;;21.33;;
74528;SDS011;63009;52.584;5.932;2023-02-15T07:12:04;40.95;;;21.30;;
74528;SDS011;63009;52.584;5.932;2023-02-15T07:14:49;43.83;;;22.52;;
74528;SDS011;63009;52.584;5.932;2023-02-15T07:17:15;40.33;;;19.87;;
74528;SDS011;63009;52.584;5.932;2023-02-15T07:19:41;50.25;;;23.33;;
74528;SDS011;63009;52.584;5.932;2023-02-15T07:22:06;42.83;;;20.87;;
74528;SDS011;63009;52.584;5.932;2023-02-15T07:24:31;41.92;;;19.60;;
74528;SDS011;63009;52.584;5.932;2023-02-15T07:26:57;40.88;;;21.92;;
74528;SDS011;63009;52.584;5.932;2023-02-15T07:29:22;40.95;;;19.70;;
74528;SDS011;63009;52.584;5.932;2023-02-15T07:31:48;48.03;;;22.67;;
74528;SDS011;63009;52.584;5.932;2023-02-15T07:34:13;36.00;;;19.15;;
74528;SDS011;63009;52.584;5.932;2023-02-15T07:36:38;43.47;;;20.67;;
74528;SDS011;63009;52.584;5.932;2023-02-15T07:39:04;41.30;;;22.30;;
74528;SDS011;63009;52.584;5.932;2023-02-15T07:41:29;45.33;;;22.20;;
74528;SDS011;63009;52.584;5.932;2023-02-15T07:43:54;46.73;;;22.60;;
74528;SDS011;63009;52.584;5.932;2023-02-15T07:46:20;48.70;;;22.40;;
74528;SDS011;63009;52.584;5.932;2023-02-15T07:48:46;44.05;;;22.17;;
74528;SDS011;63009;52.584;5.932;2023-02-15T07:51:12;43.55;;;22.38;;
74528;SDS011;63009;52.584;5.932;2023-02-15T07:53:37;45.63;;;21.98;;
74528;SDS011;63009;52.584;5.932;2023-02-15T07:56:05;45.90;;;21.90;;
74528;SDS011;63009;52.584;5.932;2023-02-15T07:58:32;45.35;;;23.27;;
74528;SDS011;63009;52.584;5.932;2023-02-15T08:01:18;42.58;;;22.08;;
74528;SDS011;63009;52.584;5.932;2023-02-15T08:03:44;45.10;;;23.15;;
74528;SDS011;63009;52.584;5.932;2023-02-15T08:06:09;40.05;;;21.80;;
74528;SDS011;63009;52.584;5.932;2023-02-15T08:08:37;39.40;;;20.40;;
74528;SDS011;63009;52.584;5.932;2023-02-15T08:11:04;41.35;;;19.80;;
74528;SDS011;63009;52.584;5.932;2023-02-15T08:13:59;38.63;;;20.50;;
74528;SDS011;63009;52.584;5.932;2023-02-15T08:19:15;35.28;;;19.83;;
74528;SDS011;63009;52.584;5.932;2023-02-15T08:21:50;36.63;;;18.17;;
74528;SDS011;63009;52.584;5.932;2023-02-15T08:24:19;34.95;;;19.88;;
74528;SDS011;63009;52.584;5.932;2023-02-15T08:26:46;37.35;;;19.98;;
74528;SDS011;63009;52.584;5.932;2023-02-15T08:29:13;34.13;;;20.23;;
74528;SDS011;63009;52.584;5.932;2023-02-15T08:31:42;35.22;;;20.67;;
74528;SDS011;63009;52.584;5.932;2023-02-15T08:34:09;36.13;;;20.08;;
74528;SDS011;63009;52.584;5.932;2023-02-15T08:36:36;31.33;;;17.10;;
74528;SDS011;63009;52.584;5.932;2023-02-15T08:39:02;34.13;;;18.48;;
74528;SDS011;63009;52.584;5.932;2023-02-15T08:41:30;34.72;;;17.73;;
74528;SDS011;63009;52.584;5.932;2023-02-15T08:43:58;34.90;;;17.98;;
74528;SDS011;63009;52.584;5.932;2023-02-15T08:46:26;29.95;;;15.88;;
74528;SDS011;63009;52.584;5.932;2023-02-15T08:48:52;30.58;;;17.42;;
74528;SDS011;63009;52.584;5.932;2023-02-15T08:51:23;35.03;;;18.23;;
74528;SDS011;63009;52.584;5.932;2023-02-15T08:53:51;29.50;;;15.73;;
74528;SDS011;63009;52.584;5.932;2023-02-15T08:56:19;27.95;;;16.35;;
74528;SDS011;63009;52.584;5.932;2023-02-15T08:58:46;30.20;;;15.45;;
74528;SDS011;63009;52.584;5.932;2023-02-15T09:01:12;35.10;;;18.53;;
74528;SDS011;63009;52.584;5.932;2023-02-15T09:03:43;30.85;;;16.33;;
74528;SDS011;63009;52.584;5.932;2023-02-15T09:06:09;32.85;;;19.27;;
74528;SDS011;63009;52.584;5.932;2023-02-15T09:08:34;31.37;;;17.43;;
74528;SDS011;63009;52.584;5.932;2023-02-15T09:13:32;29.83;;;17.58;;
74528;SDS011;63009;52.584;5.932;2023-02-15T09:15:59;31.40;;;16.75;;
74528;SDS011;63009;52.584;5.932;2023-02-15T09:18:25;30.10;;;17.42;;
74528;SDS011;63009;52.584;5.932;2023-02-15T09:20:51;40.97;;;20.00;;
74528;SDS011;63009;52.584;5.932;2023-02-15T09:23:16;33.87;;;19.57;;
74528;SDS011;63009;52.584;5.932;2023-02-15T09:25:41;42.27;;;21.07;;
74528;SDS011;63009;52.584;5.932;2023-02-15T09:28:07;32.38;;;18.40;;
74528;SDS011;63009;52.584;5.932;2023-02-15T09:30:33;32.35;;;18.55;;
74528;SDS011;63009;52.584;5.932;2023-02-15T09:32:58;36.40;;;19.85;;
74528;SDS011;63009;52.584;5.932;2023-02-15T09:35:23;38.50;;;21.23;;
74528;SDS011;63009;52.584;5.932;2023-02-15T09:37:48;36.23;;;21.63;;
74528;SDS011;63009;52.584;5.932;2023-02-15T09:40:14;40.40;;;22.25;;
74528;SDS011;63009;52.584;5.932;2023-02-15T09:42:53;36.78;;;20.15;;
74528;SDS011;63009;52.584;5.932;2023-02-15T09:45:48;34.08;;;19.50;;
74528;SDS011;63009;52.584;5.932;2023-02-15T09:48:33;36.65;;;18.80;;
74528;SDS011;63009;52.584;5.932;2023-02-15T09:56:53;38.60;;;21.23;;
74528;SDS011;63009;52.584;5.932;2023-02-15T10:10:40;39.17;;;20.08;;
74528;SDS011;63009;52.584;5.932;2023-02-15T10:13:23;35.42;;;20.05;;
74528;SDS011;63009;52.584;5.932;2023-02-15T10:16:08;38.35;;;20.90;;
74528;SDS011;63009;52.584;5.932;2023-02-15T10:26:44;34.38;;;19.88;;
74528;SDS011;63009;52.584;5.932;2023-02-15T10:29:24;36.45;;;19.50;;
74528;SDS011;63009;52.584;5.932;2023-02-15T10:43:20;33.20;;;19.92;;
74528;SDS011;63009;52.584;5.932;2023-02-15T10:57:36;37.90;;;21.13;;
74528;SDS011;63009;52.584;5.932;2023-02-15T11:00:20;35.97;;;20.98;;
74528;SDS011;63009;52.584;5.932;2023-02-15T11:05:41;31.58;;;20.38;;
74528;SDS011;63009;52.584;5.932;2023-02-15T11:08:15;32.55;;;21.05;;
74528;SDS011;63009;52.584;5.932;2023-02-15T11:10:46;37.17;;;18.88;;
74528;SDS011;63009;52.584;5.932;2023-02-15T11:13:17;37.22;;;21.63;;
74528;SDS011;63009;52.584;5.932;2023-02-15T11:15:46;34.38;;;19.50;;
74528;SDS011;63009;52.584;5.932;2023-02-15T11:18:25;34.90;;;18.83;;
74528;SDS011;63009;52.584;5.932;2023-02-15T11:23:20;35.42;;;20.95;;
74528;SDS011;63009;52.584;5.932;2023-02-15T11:26:11;35.22;;;19.90;;
74528;SDS011;63009;52.584;5.932;2023-02-15T11:28:39;33.85;;;19.73;;
74528;SDS011;63009;52.584;5.932;2023-02-15T11:31:18;33.50;;;18.67;;
74528;SDS011;63009;52.584;5.932;2023-02-15T11:33:47;35.63;;;18.67;;
74528;SDS011;63009;52.584;5.932;2023-02-15T11:36:37;35.00;;;19.92;;
74528;SDS011;63009;52.584;5.932;2023-02-15T11:39:12;33.20;;;17.85;;
74528;SDS011;63009;52.584;5.932;2023-02-15T11:41:41;33.22;;;19.55;;
74528;SDS011;63009;52.584;5.932;2023-02-15T11:46:50;35.90;;;19.08;;
74528;SDS011;63009;52.584;5.932;2023-02-15T11:49:32;33.17;;;20.10;;
74528;SDS011;63009;52.584;5.932;2023-02-15T11:52:03;33.55;;;19.13;;
74528;SDS011;63009;52.584;5.932;2023-02-15T11:54:32;31.73;;;19.02;;
74528;SDS011;63009;52.584;5.932;2023-02-15T11:57:04;33.97;;;20.88;;
74528;SDS011;63009;52.584;5.932;2023-02-15T11:59:40;36.80;;;19.20;;
74528;SDS011;63009;52.584;5.932;2023-02-15T12:02:14;31.50;;;19.23;;
74528;SDS011;63009;52.584;5.932;2023-02-15T12:04:43;33.42;;;19.25;;
74528;SDS011;63009;52.584;5.932;2023-02-15T12:07:20;32.03;;;19.38;;
74528;SDS011;63009;52.584;5.932;2023-02-15T12:10:15;39.15;;;18.88;;
74528;SDS011;63009;52.584;5.932;2023-02-15T12:12:45;31.88;;;18.27;;
74528;SDS011;63009;52.584;5.932;2023-02-15T12:15:11;31.58;;;18.27;;
74528;SDS011;63009;52.584;5.932;2023-02-15T12:17:38;32.80;;;18.00;;
74528;SDS011;63009;52.584;5.932;2023-02-15T12:22:41;33.20;;;17.87;;
74528;SDS011;63009;52.584;5.932;2023-02-15T12:25:25;29.63;;;17.00;;
74528;SDS011;63009;52.584;5.932;2023-02-15T12:27:55;32.70;;;16.58;;
74528;SDS011;63009;52.584;5.932;2023-02-15T12:30:36;33.13;;;17.38;;
74528;SDS011;63009;52.584;5.932;2023-02-15T12:33:05;31.02;;;17.52;;
74528;SDS011;63009;52.584;5.932;2023-02-15T12:35:39;32.70;;;18.23;;
74528;SDS011;63009;52.584;5.932;2023-02-15T12:38:05;33.65;;;18.05;;
74528;SDS011;63009;52.584;5.932;2023-02-15T12:40:58;30.98;;;16.02;;
74528;SDS011;63009;52.584;5.932;2023-02-15T12:43:46;31.23;;;18.27;;
74528;SDS011;63009;52.584;5.932;2023-02-15T12:48:46;32.85;;;17.85;;
74528;SDS011;63009;52.584;5.932;2023-02-15T12:51:14;32.17;;;19.45;;
74528;SDS011;63009;52.584;5.932;2023-02-15T12:53:40;35.17;;;18.42;;
74528;SDS011;63009;52.584;5.932;2023-02-15T12:56:07;31.02;;;18.17;;
74528;SDS011;63009;52.584;5.932;2023-02-15T12:58:37;31.23;;;17.42;;
74528;SDS011;63009;52.584;5.932;2023-02-15T13:01:18;28.58;;;15.98;;
74528;SDS011;63009;52.584;5.932;2023-02-15T13:03:59;29.50;;;16.92;;
74528;SDS011;63009;52.584;5.932;2023-02-15T13:06:28;30.67;;;14.02;;
74528;SDS011;63009;52.584;5.932;2023-02-15T13:09:15;31.98;;;16.80;;
74528;SDS011;63009;52.584;5.932;2023-02-15T13:11:44;29.33;;;16.02;;
74528;SDS011;63009;52.584;5.932;2023-02-15T13:17:09;30.13;;;15.98;;
74528;SDS011;63009;52.584;5.932;2023-02-15T13:19:40;33.65;;;15.90;;
74528;SDS011;63009;52.584;5.932;2023-02-15T13:22:14;28.52;;;14.48;;
74528;SDS011;63009;52.584;5.932;2023-02-15T13:24:43;30.85;;;14.43;;
74528;SDS011;63009;52.584;5.932;2023-02-15T13:27:14;29.05;;;15.75;;
74528;SDS011;63009;52.584;5.932;2023-02-15T13:29:43;29.70;;;15.65;;
74528;SDS011;63009;52.584;5.932;2023-02-15T13:32:15;30.88;;;16.38;;
74528;SDS011;63009;52.584;5.932;2023-02-15T13:34:50;27.10;;;13.75;;
74528;SDS011;63009;52.584;5.932;2023-02-15T13:37:26;32.33;;;16.30;;
74528;SDS011;63009;52.584;5.932;2023-02-15T13:39:58;27.92;;;14.43;;
74528;SDS011;63009;52.584;5.932;2023-02-15T13:59:22;32.30;;;16.15;;
74528;SDS011;63009;52.584;5.932;2023-02-15T14:04:52;29.20;;;15.77;;
74528;SDS011;63009;52.584;5.932;2023-02-15T14:07:33;28.70;;;14.68;;
74528;SDS011;63009;52.584;5.932;2023-02-15T14:27:07;30.30;;;16.27;;
74528;SDS011;63009;52.584;5.932;2023-02-15T14:29:59;31.83;;;17.73;;
74528;SDS011;63009;52.584;5.932;2023-02-15T14:32:31;33.15;;;17.17;;
74528;SDS011;63009;52.584;5.932;2023-02-15T14:35:01;34.60;;;17.13;;
74528;SDS011;63009;52.584;5.932;2023-02-15T14:43:01;34.05;;;17.25;;
74528;SDS011;63009;52.584;5.932;2023-02-15T14:45:39;34.08;;;18.50;;
74528;SDS011;63009;52.584;5.932;2023-02-15T14:48:19;38.25;;;18.50;;
74528;SDS011;63009;52.584;5.932;2023-02-15T14:50:49;34.35;;;17.10;;
74528;SDS011;63009;52.584;5.932;2023-02-15T14:55:42;32.13;;;18.17;;
74528;SDS011;63009;52.584;5.932;2023-02-15T14:58:11;35.17;;;17.00;;
74528;SDS011;63009;52.584;5.932;2023-02-15T15:00:39;31.50;;;18.45;;
74528;SDS011;63009;52.584;5.932;2023-02-15T15:03:18;33.10;;;18.92;;
74528;SDS011;63009;52.584;5.932;2023-02-15T15:05:48;33.47;;;18.98;;
74528;SDS011;63009;52.584;5.932;2023-02-15T15:08:25;34.53;;;18.20;;
74528;SDS011;63009;52.584;5.932;2023-02-15T15:11:36;36.20;;;19.02;;
74528;SDS011;63009;52.584;5.932;2023-02-15T15:14:04;32.17;;;18.33;;
74528;SDS011;63009;52.584;5.932;2023-02-15T15:16:49;33.25;;;19.00;;
74528;SDS011;63009;52.584;5.932;2023-02-15T15:22:25;30.40;;;18.90;;
74528;SDS011;63009;52.584;5.932;2023-02-15T15:24:53;35.85;;;18.67;;
74528;SDS011;63009;52.584;5.932;2023-02-15T15:30:46;36.38;;;19.98;;
74528;SDS011;63009;52.584;5.932;2023-02-15T15:35:27;37.60;;;20.75;;
74528;SDS011;63009;52.584;5.932;2023-02-15T15:48:35;40.55;;;22.42;;
74528;SDS011;63009;52.584;5.932;2023-02-15T15:53:37;33.75;;;19.25;;
74528;SDS011;63009;52.584;5.932;2023-02-15T15:56:08;36.38;;;21.27;;
74528;SDS011;63009;52.584;5.932;2023-02-15T15:58:41;35.97;;;20.05;;
74528;SDS011;63009;52.584;5.932;2023-02-15T16:01:11;38.53;;;22.33;;
74528;SDS011;63009;52.584;5.932;2023-02-15T16:03:38;39.30;;;22.75;;
74528;SDS011;63009;52.584;5.932;2023-02-15T16:06:13;40.15;;;21.88;;
74528;SDS011;63009;52.584;5.932;2023-02-15T16:08:39;40.45;;;22.23;;
74528;SDS011;63009;52.584;5.932;2023-02-15T16:11:14;38.50;;;21.10;;
74528;SDS011;63009;52.584;5.932;2023-02-15T16:13:44;35.60;;;18.25;;
74528;SDS011;63009;52.584;5.932;2023-02-15T16:16:11;38.55;;;20.35;;
74528;SDS011;63009;52.584;5.932;2023-02-15T16:18:38;36.45;;;20.92;;
74528;SDS011;63009;52.584;5.932;2023-02-15T16:21:12;36.38;;;19.90;;
74528;SDS011;63009;52.584;5.932;2023-02-15T16:29:01;37.35;;;21.52;;
74528;SDS011;63009;52.584;5.932;2023-02-15T16:31:26;35.60;;;20.63;;
74528;SDS011;63009;52.584;5.932;2023-02-15T16:33:52;39.03;;;23.40;;
74528;SDS011;63009;52.584;5.932;2023-02-15T16:36:28;39.80;;;22.50;;
74528;SDS011;63009;52.584;5.932;2023-02-15T16:41:23;38.17;;;20.53;;
74528;SDS011;63009;52.584;5.932;2023-02-15T16:43:52;41.00;;;22.17;;
74528;SDS011;63009;52.584;5.932;2023-02-15T16:46:25;36.30;;;20.73;;
74528;SDS011;63009;52.584;5.932;2023-02-15T16:48:53;42.38;;;23.38;;
74528;SDS011;63009;52.584;5.932;2023-02-15T16:51:22;40.20;;;22.60;;
74528;SDS011;63009;52.584;5.932;2023-02-15T16:53:51;40.33;;;22.75;;
74528;SDS011;63009;52.584;5.932;2023-02-15T16:56:22;43.65;;;19.50;;
74528;SDS011;63009;52.584;5.932;2023-02-15T16:58:52;38.22;;;22.40;;
74528;SDS011;63009;52.584;5.932;2023-02-15T17:01:20;41.53;;;22.40;;
74528;SDS011;63009;52.584;5.932;2023-02-15T17:03:49;41.40;;;21.35;;
74528;SDS011;63009;52.584;5.932;2023-02-15T17:06:21;41.78;;;24.13;;
74528;SDS011;63009;52.584;5.932;2023-02-15T17:08:50;41.95;;;24.10;;
74528;SDS011;63009;52.584;5.932;2023-02-15T17:11:19;43.25;;;23.90;;
74528;SDS011;63009;52.584;5.932;2023-02-15T17:14:47;44.10;;;23.98;;
74528;SDS011;63009;52.584;5.932;2023-02-15T17:16:52;38.75;;;23.15;;
74528;SDS011;63009;52.584;5.932;2023-02-15T17:19:27;44.03;;;25.77;;
74528;SDS011;63009;52.584;5.932;2023-02-15T17:22:00;41.08;;;22.92;;
74528;SDS011;63009;52.584;5.932;2023-02-15T17:26:57;41.72;;;23.25;;
74528;SDS011;63009;52.584;5.932;2023-02-15T17:29:28;48.15;;;26.90;;
74528;SDS011;63009;52.584;5.932;2023-02-15T17:31:58;44.33;;;24.23;;
74528;SDS011;63009;52.584;5.932;2023-02-15T17:39:38;44.50;;;23.55;;
74528;SDS011;63009;52.584;5.932;2023-02-15T17:42:05;42.78;;;24.88;;
74528;SDS011;63009;52.584;5.932;2023-02-15T17:44:30;41.45;;;22.98;;
74528;SDS011;63009;52.584;5.932;2023-02-15T17:46:56;42.77;;;23.50;;
74528;SDS011;63009;52.584;5.932;2023-02-15T17:49:24;45.30;;;25.70;;